createdAt,value
2024-01-19T00:00:00.495Z,52.29
2024-01-19T00:01:00.551Z,52.08
2024-01-19T00:02:00.618Z,52.54
2024-01-19T00:03:00.690Z,52.99
2024-01-19T00:04:00.836Z,51.37
2024-01-19T00:05:00.877Z,51.92
2024-01-19T00:06:00.928Z,51.79
2024-01-19T00:07:00.937Z,52.64
2024-01-19T00:08:01.037Z,53.19
2024-01-19T00:09:01.048Z,51.60
2024-01-19T00:10:01.097Z,52.34
2024-01-19T00:11:01.150Z,52.88
2024-01-19T00:12:01.201Z,52.29
2024-01-19T00:13:01.326Z,52.83
2024-01-19T00:14:01.294Z,53.67
2024-01-19T00:15:01.358Z,52.53
2024-01-19T00:16:01.405Z,51.37
2024-01-19T00:17:01.467Z,52.88
2024-01-19T00:18:01.628Z,51.52
2024-01-19T00:19:01.697Z,52.45
2024-01-19T00:20:01.669Z,51.43
2024-01-19T00:21:01.729Z,50.96
2024-01-19T00:22:01.795Z,51.97
2024-01-19T00:23:01.869Z,50.18
2024-01-19T00:24:01.942Z,52.29
2024-01-19T00:25:02.001Z,52.93
2024-01-19T00:26:02.070Z,51.53
2024-01-19T00:27:02.170Z,52.19
2024-01-19T00:28:02.214Z,53.28
2024-01-19T00:29:02.260Z,52.06
2024-01-19T00:30:02.383Z,52.79
2024-01-19T00:31:02.420Z,51.03
2024-01-19T00:32:02.480Z,51.94
2024-01-19T00:33:02.662Z,52.31
2024-01-19T00:34:02.661Z,52.17
2024-01-19T00:35:02.711Z,51.47
2024-01-19T00:36:02.836Z,51.26
2024-01-19T00:37:02.804Z,52.36
2024-01-19T00:38:02.864Z,51.31
2024-01-19T00:39:03.010Z,50.37
2024-01-19T00:40:03.002Z,51.46
2024-01-19T00:41:03.077Z,53.42
2024-01-19T00:42:03.147Z,50.41
2024-01-19T00:43:03.216Z,51.44
2024-01-19T00:44:03.260Z,52.28
2024-01-19T00:45:03.335Z,52.37
2024-01-19T00:46:03.416Z,51.74
2024-01-19T00:47:03.467Z,52.91
2024-01-19T00:48:03.618Z,52.52
2024-01-19T00:49:03.634Z,51.93
2024-01-19T00:50:03.664Z,51.50
2024-01-19T00:51:03.778Z,52.16
2024-01-19T00:52:03.801Z,51.36
2024-01-19T00:53:03.855Z,52.20
2024-01-19T00:54:03.955Z,53.12
2024-01-19T00:55:03.962Z,50.29
2024-01-19T00:56:04.019Z,52.51
2024-01-19T00:57:04.095Z,52.70
2024-01-19T00:58:04.127Z,51.96
2024-01-19T00:59:04.192Z,52.00
2024-01-19T01:00:04.316Z,54.57
2024-01-19T01:01:04.360Z,53.91
2024-01-19T01:02:04.391Z,53.59
2024-01-19T01:03:04.473Z,52.85
2024-01-19T01:04:04.534Z,51.37
2024-01-19T01:05:04.585Z,51.41
2024-01-19T01:06:04.675Z,53.85
2024-01-19T01:07:04.690Z,52.21
2024-01-19T01:08:04.755Z,52.43
2024-01-19T01:09:04.861Z,51.77
2024-01-19T01:10:04.890Z,52.40
2024-01-19T01:11:04.949Z,50.09
2024-01-19T01:12:05.010Z,50.37
2024-01-19T01:13:05.122Z,51.69
2024-01-19T01:14:05.142Z,50.83
2024-01-19T01:15:05.242Z,52.65
2024-01-19T01:16:05.262Z,51.34
2024-01-19T01:17:05.313Z,54.86
2024-01-19T01:18:05.454Z,51.12
2024-01-19T01:19:05.451Z,52.79
2024-01-19T01:20:05.508Z,52.37
2024-01-19T01:21:05.620Z,52.78
2024-01-19T01:22:05.643Z,52.45
2024-01-19T01:23:05.713Z,51.95
2024-01-19T01:24:05.761Z,50.56
2024-01-19T01:25:05.844Z,52.42
2024-01-19T01:26:05.915Z,50.21
2024-01-19T01:27:05.972Z,50.33
2024-01-19T01:28:06.041Z,52.29
2024-01-19T01:29:06.100Z,51.89
2024-01-19T01:30:06.194Z,54.14
2024-01-19T01:31:06.234Z,52.39
2024-01-19T01:32:06.288Z,52.14
2024-01-19T01:33:06.454Z,50.58
2024-01-19T01:34:06.561Z,52.32
2024-01-19T01:35:06.472Z,53.59
2024-01-19T01:36:06.585Z,52.97
2024-01-19T01:37:06.624Z,52.21
2024-01-19T01:38:06.725Z,53.25
2024-01-19T01:39:06.763Z,51.95
2024-01-19T01:40:06.831Z,53.25
2024-01-19T01:41:06.920Z,55.43
2024-01-19T01:42:06.968Z,53.40
2024-01-19T01:43:07.047Z,53.91
2024-01-19T01:44:07.107Z,54.34
2024-01-19T01:45:07.201Z,50.61
2024-01-19T01:46:07.245Z,51.49
2024-01-19T01:47:07.301Z,50.83
2024-01-19T01:48:07.478Z,51.27
2024-01-19T01:49:08.055Z,52.14
2024-01-19T01:50:07.530Z,52.91
2024-01-19T01:51:07.664Z,51.59
2024-01-19T01:52:07.638Z,50.00
2024-01-19T01:53:07.748Z,51.27
2024-01-19T01:54:07.788Z,52.60
2024-01-19T01:55:07.860Z,51.61
2024-01-19T01:56:07.932Z,52.15
2024-01-19T01:57:07.987Z,50.69
2024-01-19T01:58:08.059Z,51.65
2024-01-19T01:59:08.085Z,52.80
2024-01-19T02:00:08.140Z,51.09
2024-01-19T02:01:08.284Z,52.37
2024-01-19T02:02:08.237Z,52.55
2024-01-19T02:03:08.291Z,52.15
2024-01-19T02:04:08.341Z,51.92
2024-01-19T02:05:08.436Z,50.53
2024-01-19T02:06:30.774Z,51.19
2024-01-19T02:07:08.706Z,51.41
2024-01-19T02:08:08.565Z,51.90
2024-01-19T02:09:08.626Z,52.58
2024-01-19T02:10:08.478Z,54.08
2024-01-19T02:11:08.483Z,56.88
2024-01-19T02:12:08.476Z,54.41
2024-01-19T02:13:08.589Z,54.53
2024-01-19T02:14:08.490Z,53.12
2024-01-19T02:15:08.482Z,53.68
2024-01-19T02:16:08.492Z,52.92
2024-01-19T02:17:08.499Z,54.85
2024-01-19T02:18:08.568Z,51.23
2024-01-19T02:19:08.621Z,52.58
2024-01-19T02:20:08.503Z,51.07
2024-01-19T02:21:08.490Z,53.08
2024-01-19T02:22:08.562Z,51.81
2024-01-19T02:23:08.510Z,52.13
2024-01-19T02:24:08.502Z,50.32
2024-01-19T02:25:08.532Z,53.68
2024-01-19T02:26:08.631Z,51.22
2024-01-19T02:27:08.676Z,52.14
2024-01-19T02:28:08.736Z,52.69
2024-01-19T02:29:08.799Z,53.43
2024-01-19T02:30:08.868Z,50.56
2024-01-19T02:31:08.947Z,51.98
2024-01-19T02:32:08.988Z,50.00
2024-01-19T02:33:09.220Z,51.74
2024-01-19T02:34:09.136Z,51.44
2024-01-19T02:35:09.360Z,53.05
2024-01-19T02:36:09.253Z,51.54
2024-01-19T02:37:09.327Z,53.98
2024-01-19T02:38:09.387Z,51.30
2024-01-19T02:39:09.461Z,52.35
2024-01-19T02:40:09.535Z,55.40
2024-01-19T02:41:09.602Z,53.29
2024-01-19T02:42:09.676Z,52.38
2024-01-19T02:43:09.737Z,53.14
2024-01-19T02:44:09.821Z,53.17
2024-01-19T02:45:09.879Z,52.69
2024-01-19T02:46:09.951Z,50.35
2024-01-19T02:47:10.006Z,50.72
2024-01-19T02:48:10.164Z,52.59
2024-01-19T02:49:10.164Z,53.77
2024-01-19T02:50:10.210Z,52.92
2024-01-19T02:51:10.299Z,52.74
2024-01-19T02:52:10.370Z,52.04
2024-01-19T02:53:10.427Z,51.50
2024-01-19T02:54:10.480Z,51.02
2024-01-19T02:55:10.666Z,53.67
2024-01-19T02:56:10.700Z,50.77
2024-01-19T02:57:10.731Z,51.57
2024-01-19T02:58:10.776Z,50.31
2024-01-19T02:59:10.824Z,53.28
2024-01-19T03:00:10.889Z,53.11
2024-01-19T03:01:10.994Z,50.10
2024-01-19T03:02:11.027Z,53.65
2024-01-19T03:03:11.094Z,54.72
2024-01-19T03:04:11.164Z,53.30
2024-01-19T03:05:11.316Z,51.22
2024-01-19T03:06:11.518Z,52.21
2024-01-19T03:07:11.357Z,54.30
2024-01-19T03:08:11.425Z,53.55
2024-01-19T03:09:11.499Z,51.30
2024-01-19T03:10:11.561Z,52.49
2024-01-19T03:11:11.620Z,53.43
2024-01-19T03:12:11.667Z,51.48
2024-01-19T03:13:11.688Z,52.68
2024-01-19T03:14:11.711Z,51.91
2024-01-19T03:15:11.792Z,50.83
2024-01-19T03:16:11.814Z,52.98
2024-01-19T03:17:11.839Z,51.72
2024-01-19T03:18:12.014Z,50.93
2024-01-19T03:19:11.950Z,52.64
2024-01-19T03:20:11.971Z,52.98
2024-01-19T03:21:12.001Z,51.06
2024-01-19T03:22:12.040Z,50.47
2024-01-19T03:23:12.078Z,53.25
2024-01-19T03:24:12.134Z,52.49
2024-01-19T03:25:12.164Z,52.17
2024-01-19T03:26:12.216Z,50.94
2024-01-19T03:27:12.259Z,52.53
2024-01-19T03:28:12.310Z,52.21
2024-01-19T03:29:12.342Z,52.63
2024-01-19T03:30:12.409Z,50.10
2024-01-19T03:31:12.458Z,52.40
2024-01-19T03:32:12.514Z,52.34
2024-01-19T03:33:12.631Z,50.58
2024-01-19T03:34:12.622Z,50.69
2024-01-19T03:35:12.636Z,52.57
2024-01-19T03:36:12.681Z,52.34
2024-01-19T03:37:12.693Z,52.36
2024-01-19T03:38:12.770Z,52.33
2024-01-19T03:39:12.806Z,54.20
2024-01-19T03:40:12.884Z,52.68
2024-01-19T03:41:12.985Z,53.19
2024-01-19T03:42:13.014Z,50.93
2024-01-19T03:43:13.051Z,53.54
2024-01-19T03:44:13.154Z,51.44
2024-01-19T03:45:13.168Z,51.68
2024-01-19T03:46:13.246Z,52.11
2024-01-19T03:47:13.307Z,52.40
2024-01-19T03:48:13.445Z,53.52
2024-01-19T03:49:13.454Z,53.78
2024-01-19T03:50:13.644Z,54.34
2024-01-19T03:51:13.594Z,53.41
2024-01-19T03:52:13.674Z,53.17
2024-01-19T03:53:13.733Z,53.04
2024-01-19T03:54:13.808Z,53.74
2024-01-19T03:55:14.876Z,53.23
2024-01-19T03:56:13.920Z,52.78
2024-01-19T03:57:13.964Z,53.53
2024-01-19T03:58:14.029Z,52.13
2024-01-19T03:59:14.079Z,52.69
2024-01-19T04:00:14.132Z,52.84
2024-01-19T04:01:14.236Z,51.75
2024-01-19T04:02:14.232Z,51.49
2024-01-19T04:03:14.481Z,51.91
2024-01-19T04:04:14.390Z,52.14
2024-01-19T04:05:14.478Z,54.41
2024-01-19T04:06:14.561Z,52.99
2024-01-19T04:07:14.586Z,51.89
2024-01-19T04:08:14.622Z,51.87
2024-01-19T04:09:14.654Z,50.00
2024-01-19T04:10:14.693Z,52.06
2024-01-19T04:11:14.720Z,52.55
2024-01-19T04:12:14.795Z,51.75
2024-01-19T04:13:14.807Z,50.25
2024-01-19T04:14:14.834Z,52.08
2024-01-19T04:15:14.876Z,52.28
2024-01-19T04:16:14.916Z,52.60
2024-01-19T04:17:14.935Z,53.83
2024-01-19T04:18:15.249Z,51.15
2024-01-19T04:19:15.160Z,51.21
2024-01-19T04:20:15.112Z,51.53
2024-01-19T04:21:15.178Z,55.27
2024-01-19T04:22:15.234Z,52.99
2024-01-19T04:23:15.262Z,52.44
2024-01-19T04:24:15.311Z,51.04
2024-01-19T04:25:15.344Z,51.87
2024-01-19T04:26:15.411Z,52.03
2024-01-19T04:27:15.455Z,51.79
2024-01-19T04:28:15.503Z,54.35
2024-01-19T04:29:15.574Z,53.32
2024-01-19T04:30:15.612Z,54.09
2024-01-19T04:31:15.677Z,50.58
2024-01-19T04:32:15.724Z,51.45
2024-01-19T04:33:15.884Z,51.06
2024-01-19T04:34:15.835Z,51.65
2024-01-19T04:35:15.857Z,51.91
2024-01-19T04:36:15.886Z,53.82
2024-01-19T04:37:15.918Z,52.12
2024-01-19T04:38:15.961Z,54.02
2024-01-19T04:39:16.011Z,50.02
2024-01-19T04:40:16.057Z,50.66
2024-01-19T04:41:16.110Z,52.43
2024-01-19T04:42:16.114Z,52.63
2024-01-19T04:43:16.157Z,50.79
2024-01-19T04:44:16.187Z,51.06
2024-01-19T04:45:16.166Z,52.40
2024-01-19T04:46:16.178Z,51.24
2024-01-19T04:47:16.182Z,54.54
2024-01-19T04:48:16.301Z,53.30
2024-01-19T04:49:23.599Z,50.00
2024-01-19T04:50:23.613Z,50.00
2024-01-19T04:51:23.588Z,50.00
2024-01-19T04:52:23.600Z,50.00
2024-01-19T04:53:23.625Z,50.00
2024-01-19T04:54:23.581Z,52.05
2024-01-19T04:55:23.587Z,51.95
2024-01-19T04:56:23.613Z,51.70
2024-01-19T04:57:23.598Z,50.57
2024-01-19T04:58:23.592Z,50.00
2024-01-19T04:59:23.602Z,51.72
2024-01-19T05:00:23.587Z,51.37
2024-01-19T05:01:23.607Z,51.41
2024-01-19T05:02:23.629Z,52.30
2024-01-19T05:03:23.604Z,52.30
2024-01-19T05:04:23.695Z,50.55
2024-01-19T05:05:23.685Z,50.37
2024-01-19T05:06:23.725Z,51.64
2024-01-19T05:07:23.618Z,52.18
2024-01-19T05:08:23.633Z,51.72
2024-01-19T05:09:23.614Z,52.22
2024-01-19T05:10:23.666Z,53.55
2024-01-19T05:11:23.631Z,52.31
2024-01-19T05:12:23.620Z,53.64
2024-01-19T05:13:23.625Z,51.66
2024-01-19T05:14:23.643Z,51.97
2024-01-19T05:15:23.894Z,50.00
2024-01-19T05:16:23.629Z,54.00
2024-01-19T05:17:23.648Z,54.59
2024-01-19T05:18:23.689Z,53.98
2024-01-19T05:19:23.634Z,54.31
2024-01-19T05:20:23.650Z,51.31
2024-01-19T05:21:23.658Z,51.58
2024-01-19T05:22:23.745Z,51.74
2024-01-19T05:23:23.784Z,54.17
2024-01-19T05:24:23.824Z,53.63
2024-01-19T05:25:23.914Z,52.53
2024-01-19T05:26:24.100Z,54.67
2024-01-19T05:27:24.023Z,52.98
2024-01-19T05:28:24.095Z,52.99
2024-01-19T05:29:24.142Z,52.49
2024-01-19T05:30:24.187Z,56.10
2024-01-19T05:31:24.264Z,52.65
2024-01-19T05:32:24.433Z,52.36
2024-01-19T05:33:24.505Z,53.98
2024-01-19T05:34:24.530Z,53.37
2024-01-19T05:35:24.580Z,52.97
2024-01-19T05:36:24.584Z,52.54
2024-01-19T05:37:24.640Z,50.99
2024-01-19T05:38:24.714Z,52.95
2024-01-19T05:39:24.776Z,53.40
2024-01-19T05:40:24.828Z,54.43
2024-01-19T05:41:24.916Z,56.20
2024-01-19T05:42:24.953Z,51.84
2024-01-19T05:43:25.035Z,52.11
2024-01-19T05:44:25.144Z,53.37
2024-01-19T05:45:25.151Z,54.49
2024-01-19T05:46:25.224Z,53.46
2024-01-19T05:47:25.352Z,52.02
2024-01-19T05:48:25.546Z,53.86
2024-01-19T05:49:25.484Z,52.50
2024-01-19T05:50:25.489Z,53.74
2024-01-19T05:51:25.520Z,55.06
2024-01-19T05:52:25.560Z,53.56
2024-01-19T05:53:25.692Z,53.71
2024-01-19T05:54:25.726Z,51.11
2024-01-19T05:55:25.756Z,53.22
2024-01-19T05:56:25.852Z,51.76
2024-01-19T05:57:25.806Z,53.53
2024-01-19T05:58:25.807Z,54.03
2024-01-19T05:59:25.872Z,51.38
2024-01-19T06:00:25.857Z,52.54
2024-01-19T06:01:25.883Z,52.55
2024-01-19T06:02:25.956Z,55.19
2024-01-19T06:03:25.997Z,53.39
2024-01-19T06:04:26.045Z,52.74
2024-01-19T06:05:26.149Z,55.24
2024-01-19T06:06:26.188Z,54.05
2024-01-19T06:07:26.186Z,56.74
2024-01-19T06:08:26.216Z,53.76
2024-01-19T06:09:26.228Z,53.64
2024-01-19T06:10:26.274Z,53.17
2024-01-19T06:11:26.320Z,53.67
2024-01-19T06:12:26.332Z,55.62
2024-01-19T06:13:26.401Z,56.50
2024-01-19T06:14:26.438Z,54.82
2024-01-19T06:15:26.467Z,56.01
2024-01-19T06:16:26.534Z,57.62
2024-01-19T06:17:26.626Z,58.75
2024-01-19T06:18:26.762Z,59.70
2024-01-19T06:19:26.748Z,61.09
2024-01-19T06:20:26.865Z,61.83
2024-01-19T06:21:26.895Z,64.69
2024-01-19T06:22:26.989Z,65.72
2024-01-19T06:23:27.028Z,66.91
2024-01-19T06:24:27.117Z,66.29
2024-01-19T06:25:27.136Z,66.34
2024-01-19T06:26:27.265Z,70.00
2024-01-19T06:27:27.273Z,70.19
2024-01-19T06:28:27.323Z,67.72
2024-01-19T06:29:27.436Z,71.27
2024-01-19T06:30:27.479Z,68.83
2024-01-19T06:31:27.523Z,70.69
2024-01-19T06:32:27.660Z,68.79
2024-01-19T06:33:27.709Z,67.74
2024-01-19T06:34:27.767Z,67.78
2024-01-19T06:35:28.012Z,64.00
2024-01-19T06:36:28.567Z,58.76
2024-01-19T06:37:27.879Z,55.87
2024-01-19T06:38:28.022Z,54.81
2024-01-19T06:39:27.976Z,54.64
2024-01-19T06:40:28.054Z,58.83
2024-01-19T06:41:28.223Z,63.69
2024-01-19T06:42:28.214Z,70.22
2024-01-19T06:43:28.239Z,71.15
2024-01-19T06:44:28.441Z,71.75
2024-01-19T06:45:28.340Z,73.66
2024-01-19T06:46:28.745Z,78.91
2024-01-19T06:47:28.543Z,79.40
2024-01-19T06:48:28.696Z,80.46
2024-01-19T06:49:28.699Z,82.08
2024-01-19T06:50:28.742Z,78.76
2024-01-19T06:51:28.769Z,77.33
2024-01-19T06:52:28.817Z,74.52
2024-01-19T06:53:28.904Z,75.71
2024-01-19T06:54:28.930Z,75.10
2024-01-19T06:55:29.033Z,75.14
2024-01-19T06:56:29.315Z,77.68
2024-01-19T06:57:29.243Z,77.84
2024-01-19T06:58:29.180Z,80.10
2024-01-19T06:59:29.244Z,79.30
2024-01-19T07:00:29.367Z,82.05
2024-01-19T07:01:29.356Z,81.98
2024-01-19T07:02:29.443Z,81.93
2024-01-19T07:03:29.497Z,80.57
2024-01-19T07:04:29.619Z,80.76
2024-01-19T07:05:29.770Z,81.46
2024-01-19T07:06:29.778Z,84.95
2024-01-19T07:07:29.745Z,82.29
2024-01-19T07:08:29.857Z,84.13
2024-01-19T07:09:29.877Z,80.94
2024-01-19T07:10:29.946Z,80.88
2024-01-19T07:11:30.034Z,84.22
2024-01-19T07:12:30.100Z,82.12
2024-01-19T07:13:30.154Z,82.82
2024-01-19T07:14:30.244Z,82.82
2024-01-19T07:15:30.274Z,82.20
2024-01-19T07:16:30.373Z,83.06
2024-01-19T07:17:30.614Z,81.92
2024-01-19T07:18:30.652Z,80.46
2024-01-19T07:19:30.590Z,79.41
2024-01-19T07:20:30.656Z,81.27
2024-01-19T07:21:30.691Z,80.28
2024-01-19T07:22:30.732Z,80.60
2024-01-19T07:23:32.077Z,82.45
2024-01-19T07:24:30.883Z,82.39
2024-01-19T07:25:30.918Z,81.00
2024-01-19T07:26:31.032Z,82.46
2024-01-19T07:27:31.045Z,83.89
2024-01-19T07:28:31.110Z,80.39
2024-01-19T07:29:31.183Z,84.02
2024-01-19T07:30:31.216Z,86.18
2024-01-19T07:31:31.240Z,84.61
2024-01-19T07:32:33.332Z,86.30
2024-01-19T07:33:33.522Z,86.34
2024-01-19T07:34:31.360Z,86.49
2024-01-19T07:35:31.466Z,86.94
2024-01-19T07:36:31.322Z,87.81
2024-01-19T07:37:31.315Z,86.84
2024-01-19T07:38:31.376Z,76.31
2024-01-19T07:39:31.317Z,76.94
2024-01-19T07:40:31.340Z,78.29
2024-01-19T07:41:31.832Z,82.46
2024-01-19T07:42:31.356Z,83.14
2024-01-19T07:43:31.324Z,88.59
2024-01-19T07:44:31.345Z,92.21
2024-01-19T07:45:31.341Z,98.88
2024-01-19T07:46:31.342Z,98.67
2024-01-19T07:47:31.356Z,104.79
2024-01-19T07:48:31.429Z,105.66
2024-01-19T07:49:31.396Z,109.38
2024-01-19T07:50:31.354Z,108.88
2024-01-19T07:51:31.419Z,109.26
2024-01-19T07:52:31.357Z,111.03
2024-01-19T07:53:31.386Z,109.66
2024-01-19T07:54:31.383Z,109.03
2024-01-19T07:55:31.368Z,109.10
2024-01-19T07:56:31.807Z,109.08
2024-01-19T07:57:31.360Z,109.14
2024-01-19T07:58:31.354Z,106.08
2024-01-19T07:59:31.366Z,107.00
2024-01-19T08:00:31.376Z,109.86
2024-01-19T08:01:31.385Z,109.36
2024-01-19T08:02:31.372Z,107.65
2024-01-19T08:03:31.374Z,108.06
2024-01-19T08:04:31.361Z,105.17
2024-01-19T08:05:31.403Z,108.54
2024-01-19T08:06:31.487Z,106.21
2024-01-19T08:07:31.350Z,108.13
2024-01-19T08:08:31.372Z,107.78
2024-01-19T08:09:31.345Z,110.53
2024-01-19T08:10:31.419Z,109.26
2024-01-19T08:11:31.405Z,109.54
2024-01-19T08:12:31.390Z,112.47
2024-01-19T08:13:31.379Z,113.78
2024-01-19T08:14:31.411Z,114.10
2024-01-19T08:15:31.368Z,115.46
2024-01-19T08:16:31.778Z,116.72
2024-01-19T08:17:31.411Z,116.72
2024-01-19T08:18:32.546Z,115.86
2024-01-19T08:19:31.411Z,117.97
2024-01-19T08:20:31.402Z,117.98
2024-01-19T08:21:31.368Z,119.98
2024-01-19T08:22:31.373Z,117.89
2024-01-19T08:23:31.424Z,119.84
2024-01-19T08:24:31.447Z,121.44
2024-01-19T08:25:31.548Z,125.71
2024-01-19T08:26:31.541Z,124.89
2024-01-19T08:27:31.536Z,127.40
2024-01-19T08:28:31.623Z,127.22
2024-01-19T08:29:31.600Z,127.46
2024-01-19T08:30:31.613Z,131.41
2024-01-19T08:31:31.774Z,131.85
2024-01-19T08:32:31.728Z,133.66
2024-01-19T08:33:31.732Z,133.79
2024-01-19T08:34:31.770Z,134.52
2024-01-19T08:35:31.868Z,133.15
2024-01-19T08:36:31.774Z,132.47
2024-01-19T08:37:31.809Z,137.94
2024-01-19T08:38:31.846Z,140.85
2024-01-19T08:39:31.904Z,145.46
2024-01-19T08:40:31.930Z,150.02
2024-01-19T08:41:32.349Z,150.93
2024-01-19T08:42:32.017Z,154.50
2024-01-19T08:43:32.073Z,153.25
2024-01-19T08:44:32.184Z,151.92
2024-01-19T08:45:32.639Z,150.32
2024-01-19T08:46:32.208Z,155.61
2024-01-19T08:47:32.299Z,152.96
2024-01-19T08:48:32.397Z,153.18
2024-01-19T08:49:32.296Z,156.77
2024-01-19T08:50:32.349Z,154.00
2024-01-19T08:51:32.813Z,153.10
2024-01-19T08:52:32.380Z,152.67
2024-01-19T08:53:32.469Z,150.80
2024-01-19T08:54:32.441Z,151.51
2024-01-19T08:55:32.484Z,147.84
2024-01-19T08:56:32.853Z,148.52
2024-01-19T08:57:32.533Z,149.37
2024-01-19T08:58:32.558Z,146.94
2024-01-19T08:59:32.631Z,146.94
2024-01-19T09:00:32.683Z,147.58
2024-01-19T09:01:32.870Z,144.18
2024-01-19T09:02:32.770Z,145.20
2024-01-19T09:03:32.862Z,146.06
2024-01-19T09:04:32.844Z,144.30
2024-01-19T09:05:33.175Z,141.94
2024-01-19T09:06:34.149Z,143.32
2024-01-19T09:07:33.619Z,142.06
2024-01-19T09:08:32.896Z,142.76
2024-01-19T09:09:32.905Z,139.65
2024-01-19T09:10:32.932Z,141.49
2024-01-19T09:11:33.334Z,142.98
2024-01-19T09:12:33.036Z,142.48
2024-01-19T09:13:33.043Z,139.71
2024-01-19T09:14:33.423Z,140.92
2024-01-19T09:15:33.110Z,138.92
2024-01-19T09:16:33.133Z,141.46
2024-01-19T09:17:33.249Z,140.36
2024-01-19T09:18:33.370Z,142.63
2024-01-19T09:19:34.410Z,140.83
2024-01-19T09:20:33.327Z,139.05
2024-01-19T09:21:33.320Z,138.79
2024-01-19T09:22:33.347Z,139.01
2024-01-19T09:23:33.445Z,139.15
2024-01-19T09:24:33.810Z,137.92
2024-01-19T09:25:33.829Z,135.34
2024-01-19T09:26:33.524Z,133.59
2024-01-19T09:27:33.496Z,133.06
2024-01-19T09:28:33.499Z,135.63
2024-01-19T09:29:33.563Z,137.98
2024-01-19T09:30:34.892Z,138.12
2024-01-19T09:31:33.710Z,136.66
2024-01-19T09:32:33.709Z,141.27
2024-01-19T09:33:34.032Z,139.20
2024-01-19T09:34:33.724Z,138.61
2024-01-19T09:35:33.733Z,140.00
2024-01-19T09:36:33.720Z,140.00
2024-01-19T09:37:33.750Z,142.55
2024-01-19T09:38:33.785Z,138.82
2024-01-19T09:39:33.802Z,137.45
2024-01-19T09:40:34.315Z,138.09
2024-01-19T09:41:33.920Z,141.24
2024-01-19T09:42:33.929Z,142.96
2024-01-19T09:43:33.972Z,140.70
2024-01-19T09:44:34.066Z,145.95
2024-01-19T09:45:34.331Z,144.64
2024-01-19T09:46:34.072Z,145.61
2024-01-19T09:47:34.113Z,147.88
2024-01-19T09:48:34.259Z,149.82
2024-01-19T09:49:34.210Z,151.82
2024-01-19T09:50:34.222Z,150.55
2024-01-19T09:51:34.416Z,152.36
2024-01-19T09:52:34.276Z,147.50
2024-01-19T09:53:34.625Z,143.10
2024-01-19T09:54:34.380Z,143.87
2024-01-19T09:55:34.834Z,141.30
2024-01-19T09:56:34.503Z,142.58
2024-01-19T09:57:34.524Z,137.44
2024-01-19T09:58:34.504Z,136.58
2024-01-19T09:59:34.640Z,135.51
2024-01-19T10:00:34.625Z,133.54
2024-01-19T10:01:34.667Z,131.68
2024-01-19T10:02:34.767Z,134.75
2024-01-19T10:03:34.745Z,132.18
2024-01-19T10:04:34.835Z,132.45
2024-01-19T10:05:34.948Z,130.99
2024-01-19T10:06:34.999Z,130.72
2024-01-19T10:07:34.946Z,130.56
2024-01-19T10:08:35.081Z,132.46
2024-01-19T10:09:35.045Z,129.86
2024-01-19T10:10:35.106Z,130.73
2024-01-19T10:11:35.188Z,127.05
2024-01-19T10:12:35.188Z,125.29
2024-01-19T10:13:35.230Z,126.72
2024-01-19T10:14:35.338Z,126.13
2024-01-19T10:15:35.848Z,126.38
2024-01-19T10:16:35.864Z,127.88
2024-01-19T10:17:35.525Z,126.60
2024-01-19T10:18:35.620Z,127.22
2024-01-19T10:19:35.581Z,126.33
2024-01-19T10:20:35.575Z,126.15
2024-01-19T10:21:35.865Z,125.37
2024-01-19T10:22:35.626Z,126.10
2024-01-19T10:23:35.771Z,126.77
2024-01-19T10:24:35.705Z,123.80
2024-01-19T10:25:35.754Z,123.81
2024-01-19T10:26:35.844Z,125.09
2024-01-19T10:27:35.789Z,131.68
2024-01-19T10:28:35.844Z,132.25
2024-01-19T10:29:35.936Z,134.25
2024-01-19T10:30:35.889Z,136.74
2024-01-19T10:31:35.918Z,136.48
2024-01-19T10:32:35.963Z,139.83
2024-01-19T10:33:36.067Z,139.79
2024-01-19T10:34:35.962Z,139.88
2024-01-19T10:35:39.613Z,141.93
2024-01-19T10:36:36.972Z,142.02
2024-01-19T10:37:36.328Z,143.03
2024-01-19T10:38:36.013Z,143.65
2024-01-19T10:39:35.983Z,149.82
2024-01-19T10:40:35.999Z,150.52
2024-01-19T10:41:38.948Z,153.22
2024-01-19T10:42:36.021Z,156.47
2024-01-19T10:43:35.991Z,156.47
2024-01-19T10:44:36.066Z,154.01
2024-01-19T10:45:35.998Z,154.64
2024-01-19T10:46:36.035Z,156.39
2024-01-19T10:47:36.055Z,157.56
2024-01-19T10:48:36.101Z,154.66
2024-01-19T10:49:36.190Z,154.91
2024-01-19T10:50:36.036Z,153.20
2024-01-19T10:51:36.076Z,153.82
2024-01-19T10:52:36.017Z,154.46
2024-01-19T10:53:36.032Z,150.83
2024-01-19T10:54:36.016Z,150.71
2024-01-19T10:55:36.024Z,152.55
2024-01-19T10:56:36.134Z,149.92
2024-01-19T10:57:36.021Z,151.77
2024-01-19T10:58:36.022Z,149.84
2024-01-19T10:59:36.137Z,150.61
2024-01-19T11:00:36.047Z,150.08
2024-01-19T11:01:36.124Z,150.76
2024-01-19T11:02:36.120Z,150.91
2024-01-19T11:03:36.078Z,149.12
2024-01-19T11:04:37.952Z,148.77
2024-01-19T11:05:36.133Z,148.94
2024-01-19T11:06:36.198Z,149.18
2024-01-19T11:07:36.108Z,149.98
2024-01-19T11:08:36.067Z,153.12
2024-01-19T11:09:36.050Z,155.57
2024-01-19T11:10:36.079Z,153.29
2024-01-19T11:11:36.085Z,151.84
2024-01-19T11:12:36.061Z,151.05
2024-01-19T11:13:36.065Z,148.83
2024-01-19T11:14:36.080Z,148.25
2024-01-19T11:15:36.094Z,140.41
2024-01-19T11:16:36.978Z,139.73
2024-01-19T11:17:36.113Z,137.59
2024-01-19T11:18:36.194Z,135.52
2024-01-19T11:19:36.081Z,134.84
2024-01-19T11:20:36.194Z,135.76
2024-01-19T11:21:36.092Z,132.24
2024-01-19T11:22:37.733Z,134.54
2024-01-19T11:23:36.094Z,135.29
2024-01-19T11:24:36.066Z,132.89
2024-01-19T11:25:36.072Z,133.50
2024-01-19T11:26:36.154Z,131.77
2024-01-19T11:27:36.085Z,133.22
2024-01-19T11:28:36.083Z,131.55
2024-01-19T11:29:36.111Z,130.29
2024-01-19T11:30:36.078Z,128.15
2024-01-19T11:31:36.407Z,127.59
2024-01-19T11:32:36.120Z,126.25
2024-01-19T11:33:36.249Z,126.84
2024-01-19T11:34:36.115Z,126.48
2024-01-19T11:35:36.115Z,128.30
2024-01-19T11:36:36.104Z,126.34
2024-01-19T11:37:36.357Z,126.96
2024-01-19T11:38:36.141Z,127.61
2024-01-19T11:39:37.712Z,127.03
2024-01-19T11:40:36.155Z,129.04
2024-01-19T11:41:36.155Z,126.63
2024-01-19T11:42:36.402Z,126.46
2024-01-19T11:43:36.113Z,126.49
2024-01-19T11:44:36.117Z,126.83
2024-01-19T11:45:36.185Z,129.23
2024-01-19T11:46:36.112Z,130.94
2024-01-19T11:47:36.198Z,130.54
2024-01-19T11:48:36.217Z,133.80
2024-01-19T11:49:36.203Z,135.13
2024-01-19T11:50:36.126Z,136.01
2024-01-19T11:51:36.129Z,136.96
2024-01-19T11:52:36.437Z,137.46
2024-01-19T11:53:36.145Z,139.61
2024-01-19T11:54:36.146Z,137.89
2024-01-19T11:55:36.143Z,138.70
2024-01-19T11:56:36.188Z,138.37
2024-01-19T11:57:37.550Z,136.98
2024-01-19T11:58:36.292Z,137.65
2024-01-19T11:59:36.171Z,136.24
2024-01-19T12:00:36.136Z,136.43
2024-01-19T12:01:36.129Z,135.24
2024-01-19T12:02:36.250Z,134.02
2024-01-19T12:03:37.145Z,134.97
2024-01-19T12:04:36.188Z,133.47
2024-01-19T12:05:36.323Z,128.21
2024-01-19T12:06:36.354Z,126.14
2024-01-19T12:07:36.281Z,121.91
2024-01-19T12:08:36.342Z,122.55
2024-01-19T12:09:36.367Z,120.86
2024-01-19T12:10:36.380Z,120.63
2024-01-19T12:11:36.425Z,120.78
2024-01-19T12:12:36.483Z,120.52
2024-01-19T12:13:36.493Z,119.21
2024-01-19T12:14:36.539Z,122.06
2024-01-19T12:15:36.554Z,118.94
2024-01-19T12:16:36.561Z,120.20
2024-01-19T12:17:36.601Z,115.91
2024-01-19T12:18:36.632Z,117.30
2024-01-19T12:19:36.662Z,112.58
2024-01-19T12:20:36.649Z,108.53
2024-01-19T12:21:36.691Z,107.33
2024-01-19T12:22:36.754Z,105.32
2024-01-19T12:23:36.730Z,104.32
2024-01-19T12:24:36.713Z,108.57
2024-01-19T12:25:36.712Z,108.20
2024-01-19T12:26:36.731Z,111.27
2024-01-19T12:27:36.752Z,113.60
2024-01-19T12:28:36.801Z,115.28
2024-01-19T12:29:36.776Z,115.60
2024-01-19T12:30:36.829Z,113.55
2024-01-19T12:31:36.887Z,114.92
2024-01-19T12:32:36.905Z,114.18
2024-01-19T12:33:36.911Z,116.11
2024-01-19T12:34:36.932Z,116.08
2024-01-19T12:35:36.929Z,116.76
2024-01-19T12:36:36.959Z,115.04
2024-01-19T12:37:37.475Z,115.05
2024-01-19T12:38:37.061Z,114.78
2024-01-19T12:39:37.093Z,114.69
2024-01-19T12:40:37.137Z,114.62
2024-01-19T12:41:37.125Z,114.42
2024-01-19T12:42:37.389Z,113.77
2024-01-19T12:43:37.243Z,114.07